F/V Argentario — FGPE — position and weather

sailwx.info

Track history (hours):
 
Tides and Currents Weather Stations Pressure Air Temp Water Temp Dewpoint Dewpoint Depression Visibility Wind Speed Wind Dir Waves Ship Positions

F/V Argentario

Last reported at 2014-Oct-21 03:06 UTC. Time now 2014-Oct-22 12:15 UTC.
Position N 46°41' W 002°12'.

Length 22 m; draft 3.4 m.

Type: Fishing. MMSI: 228975000.

Date/timePositionNaut miles runAvg speedWind from/ knotsBaromVisibWave heightAir tempDewpointWater temp
2014-Oct-21 03:06N 46°41' W 002°12'5 8.6
2014-Oct-21 02:34N 46°38' W 002°07'9 8.7
2014-Oct-21 01:34N 46°32' W 001°57'8 7.5
2014-Oct-21 00:34N 46°29' W 001°47'1 1.0
2014-Oct-20 23:33N 46°30' W 001°47'0 0.0
2014-Oct-20 22:33N 46°30' W 001°47'5 5.0
2014-Oct-20 21:33N 46°27' W 001°53'8 8.1
2014-Oct-20 20:34N 46°26' W 002°05'8 7.6
2014-Oct-20 19:32N 46°24' W 002°16'  
2014-Oct-17 17:30N 46°06' W 004°10'  
2014-Oct-13 23:28N 46°37' W 002°09'8 8.8
2014-Oct-13 22:33N 46°41' W 001°58'1 1.4
2014-Oct-13 21:34N 46°42' W 001°57'8 7.8
2014-Oct-13 20:34N 46°42' W 002°08'  
2014-Oct-11 06:32N 46°43' W 002°16'9 8.7
2014-Oct-11 05:33N 46°37' W 002°06'9 8.8
2014-Oct-11 04:33N 46°32' W 001°56'6 6.5
2014-Oct-11 03:33N 46°30' W 001°47'  
Track history (hours):
 
Tides and Currents Weather Stations Pressure Air Temp Water Temp Dewpoint Dewpoint Depression Visibility Wind Speed Wind Dir Waves Ship Positions

F/V Argentario

Last reported at 2014-Oct-21 03:06 UTC. Time now 2014-Oct-22 12:15 UTC.
Position N 46°41' W 002°12'.

Length 22 m; draft 3.4 m.

Type: Fishing. MMSI: 228975000.

Date/timePositionNaut miles runAvg speedWind from/ knotsBaromVisibWave heightAir tempDewpointWater temp
2014-Oct-21 03:06N 46°41' W 002°12'5 8.6
2014-Oct-21 02:34N 46°38' W 002°07'9 8.7
2014-Oct-21 01:34N 46°32' W 001°57'8 7.5
2014-Oct-21 00:34N 46°29' W 001°47'1 1.0
2014-Oct-20 23:33N 46°30' W 001°47'0 0.0
2014-Oct-20 22:33N 46°30' W 001°47'5 5.0
2014-Oct-20 21:33N 46°27' W 001°53'8 8.1
2014-Oct-20 20:34N 46°26' W 002°05'8 7.6
2014-Oct-20 19:32N 46°24' W 002°16'  
2014-Oct-17 17:30N 46°06' W 004°10'  
2014-Oct-13 23:28N 46°37' W 002°09'8 8.8
2014-Oct-13 22:33N 46°41' W 001°58'1 1.4
2014-Oct-13 21:34N 46°42' W 001°57'8 7.8
2014-Oct-13 20:34N 46°42' W 002°08'  
2014-Oct-11 06:32N 46°43' W 002°16'9 8.7
2014-Oct-11 05:33N 46°37' W 002°06'9 8.8
2014-Oct-11 04:33N 46°32' W 001°56'6 6.5
2014-Oct-11 03:33N 46°30' W 001°47'  

Dump ship's entire track history